Time;durP1;ratioP1;P1;durP2;ratioP2;P2;SDS_P1;SDS_P2;PMS_P1;PMS_P2;Temp;Humidity;BMP_temperature;BMP_pressure;BME280_temperature;BME280_humidity;BME280_pressure;Samples;Min_cycle;Max_cycle;Signal;HPM_P1;HPM_P2
2023/01/03 00:02:19;;;;;;;2.10;1.60;;;;;;;;;;5086642;28;20091;-87
2023/01/03 00:04:52;;;;;;;2.97;1.95;;;;;;;;;;5104690;28;20030;-86
2023/01/03 00:07:32;;;;;;;2.08;1.17;;;;;;;;;;5079761;28;20043;-86
2023/01/03 00:10:03;;;;;;;1.60;1.33;;;;;;;;;;5100907;28;20023;-87
2023/01/03 00:12:31;;;;;;;1.42;0.98;;;;;;;;;;5101060;28;20038;-86
2023/01/03 00:15:00;;;;;;;1.52;0.90;;;;;;;;;;5085171;28;20383;-86
2023/01/03 00:17:26;;;;;;;1.48;1.17;;;;;;;;;;5084077;28;20110;-85
2023/01/03 00:19:52;;;;;;;2.00;1.77;;;;;;;;;;5098971;28;20085;-86
2023/01/03 00:22:17;;;;;;;1.67;1.08;;;;;;;;;;5077221;28;20020;-86
2023/01/03 00:24:45;;;;;;;1.50;1.02;;;;;;;;;;5078062;28;20031;-86
2023/01/03 00:27:11;;;;;;;2.55;1.35;;;;;;;;;;5091717;28;20044;-86
2023/01/03 00:29:37;;;;;;;1.13;0.95;;;;;;;;;;5107277;28;20023;-86
2023/01/03 00:32:03;;;;;;;0.88;0.82;;;;;;;;;;5119616;27;20019;-86
2023/01/03 00:34:29;;;;;;;3.13;1.75;;;;;;;;;;5098438;28;20099;-86
2023/01/03 00:36:55;;;;;;;2.50;1.25;;;;;;;;;;5090159;28;20052;-87
2023/01/03 00:39:20;;;;;;;1.00;0.93;;;;;;;;;;5082686;28;20028;-87
2023/01/03 00:41:46;;;;;;;1.27;1.17;;;;;;;;;;5102117;28;20043;-87
2023/01/03 00:44:12;;;;;;;3.03;1.90;;;;;;;;;;5102745;28;20023;-88
2023/01/03 00:46:37;;;;;;;2.10;1.85;;;;;;;;;;5101796;28;20050;-87
2023/01/03 00:49:04;;;;;;;1.38;1.15;;;;;;;;;;5080422;28;20080;-87
2023/01/03 00:51:38;;;;;;;2.47;1.73;;;;;;;;;;5081879;28;20024;-87
2023/01/03 00:54:08;;;;;;;4.47;2.00;;;;;;;;;;5086105;28;20108;-87
2023/01/03 00:56:40;;;;;;;2.05;1.35;;;;;;;;;;5085819;28;20028;-86
2023/01/03 00:59:06;;;;;;;4.45;2.22;;;;;;;;;;5101448;28;20483;-88
2023/01/03 01:01:39;;;;;;;7.63;2.80;;;;;;;;;;5083011;28;20045;-86
2023/01/03 01:04:07;;;;;;;1.90;1.27;;;;;;;;;;5083053;28;20027;-85
2023/01/03 01:06:35;;;;;;;2.67;2.08;;;;;;;;;;5080852;28;20023;-87
2023/01/03 01:09:03;;;;;;;1.75;1.40;;;;;;;;;;5097593;28;20094;-87
2023/01/03 01:11:29;;;;;;;1.55;1.30;;;;;;;;;;5100632;28;20027;-86
2023/01/03 01:13:55;;;;;;;3.17;1.50;;;;;;;;;;5103889;28;20026;-86
2023/01/03 01:16:29;;;;;;;0.75;0.73;;;;;;;;;;5086108;28;20031;-86
2023/01/03 01:18:57;;;;;;;2.97;1.58;;;;;;;;;;5088655;28;20112;-86
2023/01/03 01:21:25;;;;;;;6.93;0.95;;;;;;;;;;5087380;28;20032;-87
2023/01/03 01:23:51;;;;;;;4.78;1.63;;;;;;;;;;5102670;28;20020;-88
2023/01/03 01:26:20;;;;;;;1.85;1.42;;;;;;;;;;5085863;28;20016;-86
2023/01/03 01:28:46;;;;;;;1.77;1.42;;;;;;;;;;5084737;28;20433;-86
2023/01/03 01:31:15;;;;;;;2.80;1.92;;;;;;;;;;5121176;28;20034;-88
2023/01/03 01:33:40;;;;;;;3.25;1.33;;;;;;;;;;5080019;28;20380;-87
2023/01/03 01:36:11;;;;;;;5.03;2.78;;;;;;;;;;5082328;28;20024;-87
2023/01/03 01:38:37;;;;;;;3.83;1.83;;;;;;;;;;5085165;28;20024;-88
2023/01/03 01:41:03;;;;;;;3.00;1.90;;;;;;;;;;5085701;28;20030;-88
2023/01/03 01:46:21;;;;;;;1.88;1.65;;;;;;;;;;5102751;28;20034;-87
2023/01/03 01:48:50;;;;;;;2.20;1.85;;;;;;;;;;5087319;28;20066;-85
2023/01/03 01:51:17;;;;;;;1.90;1.48;;;;;;;;;;5083480;28;20463;-87
2023/01/03 01:53:43;;;;;;;1.10;1.00;;;;;;;;;;5089348;28;20035;-85
2023/01/03 01:56:22;;;;;;;0.88;0.85;;;;;;;;;;5088164;28;20027;-87
2023/01/03 01:58:50;;;;;;;1.02;0.73;;;;;;;;;;5082612;28;20108;-87
2023/01/03 02:01:18;;;;;;;3.35;2.15;;;;;;;;;;5085808;28;20088;-87
2023/01/03 02:03:49;;;;;;;0.57;0.52;;;;;;;;;;5085842;28;20138;-88
2023/01/03 02:06:16;;;;;;;1.48;1.30;;;;;;;;;;5086563;28;20032;-86
2023/01/03 02:08:42;;;;;;;2.53;1.42;;;;;;;;;;5105711;28;20020;-87
2023/01/03 02:11:41;;;;;;;2.42;1.27;;;;;;;;;;5120502;27;20475;-87
2023/01/03 02:14:28;;;;;;;1.33;1.08;;;;;;;;;;5083917;28;20061;-87
2023/01/03 02:16:57;;;;;;;3.80;2.15;;;;;;;;;;5080340;28;20019;-86
2023/01/03 02:19:40;;;;;;;1.52;0.95;;;;;;;;;;5090759;28;20426;-86
2023/01/03 02:22:50;;;;;;;0.65;0.65;;;;;;;;;;5084218;28;20051;-86
2023/01/03 02:25:27;;;;;;;1.20;0.47;;;;;;;;;;5078352;28;20043;-86
2023/01/03 02:28:27;;;;;;;1.30;1.20;;;;;;;;;;5085321;28;20043;-85
2023/01/03 02:31:12;;;;;;;2.08;1.45;;;;;;;;;;5080100;28;20024;-87
2023/01/03 02:34:05;;;;;;;1.27;0.93;;;;;;;;;;5080093;28;20503;-86
2023/01/03 02:36:55;;;;;;;3.03;1.20;;;;;;;;;;5076080;28;20078;-86
2023/01/03 02:39:24;;;;;;;0.80;0.60;;;;;;;;;;5076124;28;20552;-87
2023/01/03 02:45:05;;;;;;;1.73;1.60;;;;;;;;;;5082870;28;20491;-88
2023/01/03 02:47:40;;;;;;;6.03;1.90;;;;;;;;;;5113026;27;21655;-87
2023/01/03 02:50:08;;;;;;;1.75;1.52;;;;;;;;;;5088916;28;20451;-87
2023/01/03 02:52:36;;;;;;;1.30;1.10;;;;;;;;;;5087587;28;20021;-87
2023/01/03 02:55:08;;;;;;;2.80;1.40;;;;;;;;;;5084560;28;20467;-86
2023/01/03 02:57:39;;;;;;;0.93;0.90;;;;;;;;;;5082111;28;20017;-85
2023/01/03 03:00:18;;;;;;;1.75;0.93;;;;;;;;;;5080983;28;20054;-86
2023/01/03 03:02:50;;;;;;;1.40;1.17;;;;;;;;;;5081796;28;20077;-87
2023/01/03 03:05:40;;;;;;;1.40;1.02;;;;;;;;;;5080465;28;20036;-87
2023/01/03 03:08:05;;;;;;;;;;;;;;;;;;5101786;28;20120;-87
2023/01/03 03:13:29;;;;;;;1.02;0.95;;;;;;;;;;5080888;28;20100;-87
2023/01/03 03:16:11;;;;;;;1.17;0.90;;;;;;;;;;5078095;28;20032;-89
2023/01/03 03:18:58;;;;;;;0.90;0.82;;;;;;;;;;5079244;28;20032;-88
2023/01/03 03:28:33;;;;;;;0.85;0.75;;;;;;;;;;5090940;28;20533;-87
2023/01/03 03:29:55;;;;;;;1.10;0.88;;;;;;;;;;5100305;28;20046;-87
2023/01/03 03:32:25;;;;;;;0.50;0.43;;;;;;;;;;5088533;28;20026;-86
2023/01/03 03:34:51;;;;;;;;;;;;;;;;;;5098658;28;20031;-86
2023/01/03 03:37:19;;;;;;;0.30;0.30;;;;;;;;;;5104456;28;20285;-88
2023/01/03 03:46:09;;;;;;;0.70;0.68;;;;;;;;;;5095581;28;20078;-86
2023/01/03 03:51:32;;;;;;;1.40;1.00;;;;;;;;;;5098731;28;20492;-86
2023/01/03 03:54:02;;;;;;;1.83;1.58;;;;;;;;;;5076152;28;20103;-85
2023/01/03 03:56:30;;;;;;;4.45;1.80;;;;;;;;;;5083181;28;20027;-87
2023/01/03 03:59:07;;;;;;;1.60;1.40;;;;;;;;;;5076731;28;20042;-86
2023/01/03 04:01:37;;;;;;;2.30;1.10;;;;;;;;;;5082533;28;20391;-86
2023/01/03 04:04:06;;;;;;;;;;;;;;;;;;5099270;28;20064;-87
2023/01/03 04:06:42;;;;;;;1.77;0.93;;;;;;;;;;5104722;28;19916;-87
2023/01/03 04:09:08;;;;;;;0.52;0.50;;;;;;;;;;5080980;28;20020;-87
2023/01/03 04:11:35;;;;;;;0.82;0.82;;;;;;;;;;5089462;28;20449;-85
2023/01/03 04:14:01;;;;;;;0.40;0.40;;;;;;;;;;5086659;28;20034;-86
2023/01/03 04:16:26;;;;;;;1.23;1.13;;;;;;;;;;5103263;28;20110;-85
2023/01/03 04:18:52;;;;;;;0.80;0.80;;;;;;;;;;5100604;28;20031;-86
2023/01/03 04:21:17;;;;;;;0.93;0.82;;;;;;;;;;5103930;28;20387;-85
2023/01/03 04:23:43;;;;;;;0.55;0.55;;;;;;;;;;5082986;28;20071;-85
2023/01/03 04:26:08;;;;;;;1.80;1.50;;;;;;;;;;5102087;28;20161;-85
2023/01/03 04:28:33;;;;;;;0.50;0.50;;;;;;;;;;5104890;28;20043;-87
2023/01/03 04:30:59;;;;;;;0.57;0.57;;;;;;;;;;5103439;28;20024;-86
2023/01/03 04:33:24;;;;;;;1.08;0.98;;;;;;;;;;5103906;28;20027;-87
2023/01/03 04:35:50;;;;;;;1.05;0.95;;;;;;;;;;5105640;28;20043;-87
2023/01/03 04:38:16;;;;;;;0.55;0.55;;;;;;;;;;5083934;28;20085;-86
2023/01/03 04:40:41;;;;;;;2.10;1.05;;;;;;;;;;5104877;28;20045;-87
2023/01/03 04:45:53;;;;;;;1.08;0.98;;;;;;;;;;5100234;28;20046;-87
2023/01/03 04:48:18;;;;;;;0.75;0.65;;;;;;;;;;5103353;28;20024;-86
2023/01/03 04:50:57;;;;;;;1.08;0.75;;;;;;;;;;5082693;28;20111;-86
2023/01/03 04:53:24;;;;;;;0.85;0.80;;;;;;;;;;5085877;28;20035;-86
2023/01/03 04:55:51;;;;;;;1.67;1.30;;;;;;;;;;5079012;28;20028;-86
2023/01/03 04:58:17;;;;;;;0.88;0.88;;;;;;;;;;5104324;28;20470;-86
2023/01/03 05:00:43;;;;;;;2.50;1.08;;;;;;;;;;5101434;28;20030;-86
2023/01/03 05:03:08;;;;;;;2.05;1.73;;;;;;;;;;5082361;28;20036;-85
2023/01/03 05:05:35;;;;;;;1.90;1.67;;;;;;;;;;5082020;28;20115;-86
2023/01/03 05:08:08;;;;;;;4.90;2.70;;;;;;;;;;5098241;28;20024;-88
2023/01/03 05:10:36;;;;;;;2.00;1.80;;;;;;;;;;5082639;28;20164;-86
2023/01/03 05:13:02;;;;;;;1.67;1.00;;;;;;;;;;5104201;28;20023;-87
2023/01/03 05:15:35;;;;;;;2.88;2.63;;;;;;;;;;5084216;28;20077;-87
2023/01/03 05:18:01;;;;;;;6.00;2.72;;;;;;;;;;5083695;28;20381;-89
2023/01/03 05:26:12;;;;;;;4.03;2.95;;;;;;;;;;5097732;28;20074;-87
2023/01/03 05:28:38;;;;;;;2.45;2.17;;;;;;;;;;5080409;28;20041;-86
2023/01/03 05:31:11;;;;;;;3.40;2.53;;;;;;;;;;5085150;28;20468;-87
2023/01/03 05:33:45;;;;;;;5.72;3.47;;;;;;;;;;5083856;28;20032;-87
2023/01/03 05:36:11;;;;;;;2.42;2.15;;;;;;;;;;5073090;28;20056;-88
2023/01/03 05:38:40;;;;;;;1.73;1.42;;;;;;;;;;5085076;28;20059;-86
2023/01/03 05:44:07;;;;;;;3.65;2.22;;;;;;;;;;5087662;28;20042;-87
2023/01/03 05:46:33;;;;;;;1.20;1.10;;;;;;;;;;5118055;27;20764;-85
2023/01/03 05:48:58;;;;;;;1.98;1.42;;;;;;;;;;5080824;28;20060;-86
2023/01/03 05:51:24;;;;;;;0.68;0.68;;;;;;;;;;5081022;28;20476;-87
2023/01/03 05:53:49;;;;;;;1.30;0.85;;;;;;;;;;5085251;28;20055;-87
2023/01/03 05:56:15;;;;;;;1.45;1.23;;;;;;;;;;5085603;28;20028;-87
2023/01/03 05:58:44;;;;;;;2.15;1.95;;;;;;;;;;5081512;28;20170;-87
2023/01/03 06:01:12;;;;;;;1.98;1.45;;;;;;;;;;5089899;28;20024;-90
2023/01/03 06:03:38;;;;;;;4.35;2.65;;;;;;;;;;5083562;28;20043;-85
2023/01/03 06:06:05;;;;;;;4.47;3.38;;;;;;;;;;5109102;27;20028;-89
2023/01/03 06:08:34;;;;;;;5.20;3.20;;;;;;;;;;5084791;28;20025;-87
2023/01/03 06:11:07;;;;;;;1.52;1.13;;;;;;;;;;5089275;28;20120;-88
2023/01/03 06:13:33;;;;;;;1.75;1.50;;;;;;;;;;5089111;28;20032;-88
2023/01/03 06:18:51;;;;;;;2.40;1.95;;;;;;;;;;5084313;28;20039;-89
2023/01/03 06:21:17;;;;;;;2.22;1.55;;;;;;;;;;5084361;28;20020;-88
2023/01/03 06:23:46;;;;;;;4.55;3.83;;;;;;;;;;5081295;28;20024;-88
2023/01/03 06:26:20;;;;;;;4.55;3.28;;;;;;;;;;5084186;28;20077;-90
2023/01/03 06:28:46;;;;;;;7.30;4.25;;;;;;;;;;5053231;28;20137;-89
2023/01/03 06:31:12;;;;;;;4.20;3.30;;;;;;;;;;5049593;28;20524;-87
2023/01/03 06:33:59;;;;;;;5.57;3.00;;;;;;;;;;5054320;28;20039;-87
2023/01/03 06:36:25;;;;;;;5.93;3.78;;;;;;;;;;5084348;28;20103;-88
2023/01/03 06:38:52;;;;;;;9.32;4.53;;;;;;;;;;5050177;28;20116;-92
2023/01/03 06:41:17;;;;;;;4.13;3.35;;;;;;;;;;5051600;28;20033;-88
2023/01/03 06:43:43;;;;;;;5.47;3.67;;;;;;;;;;5053360;28;20023;-88
2023/01/03 06:54:30;;;;;;;7.70;3.90;;;;;;;;;;5054074;28;20389;-90
2023/01/03 06:56:55;;;;;;;5.38;2.72;;;;;;;;;;5055052;28;20013;-90
2023/01/03 06:59:22;;;;;;;5.55;3.17;;;;;;;;;;5052763;28;20048;-88
2023/01/03 07:01:49;;;;;;;6.45;4.72;;;;;;;;;;5052564;28;20491;-89
2023/01/03 07:04:16;;;;;;;4.63;4.15;;;;;;;;;;5053005;28;20155;-88
2023/01/03 07:06:42;;;;;;;6.03;4.65;;;;;;;;;;5053242;28;20033;-89
2023/01/03 07:09:09;;;;;;;6.85;4.72;;;;;;;;;;5051644;28;20029;-88
2023/01/03 07:11:35;;;;;;;7.57;4.45;;;;;;;;;;5051850;28;20059;-90
2023/01/03 07:14:02;;;;;;;10.38;5.13;;;;;;;;;;5053466;28;20090;-90
2023/01/03 07:16:36;;;;;;;8.55;6.45;;;;;;;;;;5053991;28;20031;-88
2023/01/03 07:19:03;;;;;;;15.75;7.18;;;;;;;;;;5053663;28;20586;-89
2023/01/03 07:21:30;;;;;;;8.60;6.57;;;;;;;;;;5052666;28;20369;-88
2023/01/03 07:23:57;;;;;;;17.00;8.32;;;;;;;;;;5051529;28;20025;-88
2023/01/03 07:26:23;;;;;;;13.75;6.38;;;;;;;;;;5056058;28;20037;-90
2023/01/03 07:28:50;;;;;;;14.73;7.18;;;;;;;;;;5090042;28;20138;-88
2023/01/03 07:31:16;;;;;;;6.70;4.90;;;;;;;;;;5089625;28;20024;-89
2023/01/03 07:33:42;;;;;;;11.88;7.07;;;;;;;;;;5100699;28;20030;-88
2023/01/03 07:36:09;;;;;;;13.73;7.78;;;;;;;;;;5099827;28;20032;-91
2023/01/03 07:38:39;;;;;;;10.32;6.95;;;;;;;;;;5124061;27;20035;-89
2023/01/03 07:41:04;;;;;;;;;;;;;;;;;;5107606;28;20505;-88
2023/01/03 07:43:36;;;;;;;10.68;7.35;;;;;;;;;;5090742;28;19911;-89
2023/01/03 07:46:18;;;;;;;15.07;6.90;;;;;;;;;;5087335;28;20050;-89
2023/01/03 07:48:46;;;;;;;9.95;6.95;;;;;;;;;;5080305;28;20020;-86
2023/01/03 07:51:14;;;;;;;12.45;8.48;;;;;;;;;;5081266;28;20019;-88
2023/01/03 07:53:40;;;;;;;14.10;8.98;;;;;;;;;;5099173;28;20122;-87
2023/01/03 07:56:12;;;;;;;11.13;8.80;;;;;;;;;;5083003;28;20034;-86
2023/01/03 07:58:38;;;;;;;8.05;6.07;;;;;;;;;;5081670;28;20028;-86
2023/01/03 08:01:06;;;;;;;8.30;6.68;;;;;;;;;;5081995;28;20448;-87
2023/01/03 08:03:33;;;;;;;23.80;12.85;;;;;;;;;;5096709;28;20019;-88
2023/01/03 08:06:00;;;;;;;26.70;14.98;;;;;;;;;;5096933;28;20468;-86
2023/01/03 08:08:26;;;;;;;15.68;7.82;;;;;;;;;;5100868;28;20374;-86
2023/01/03 08:13:35;;;;;;;9.63;7.22;;;;;;;;;;5096441;28;20115;-87
2023/01/03 08:16:01;;;;;;;10.20;7.43;;;;;;;;;;5078250;28;20118;-87
2023/01/03 08:18:27;;;;;;;8.82;7.93;;;;;;;;;;5079193;28;20046;-86
2023/01/03 08:20:55;;;;;;;8.95;6.72;;;;;;;;;;5081011;28;20051;-86
2023/01/03 08:23:24;;;;;;;9.02;6.47;;;;;;;;;;5095254;28;20031;-85
2023/01/03 08:25:50;;;;;;;15.10;8.68;;;;;;;;;;5099464;28;20076;-85
2023/01/03 08:28:16;;;;;;;10.18;7.85;;;;;;;;;;5080102;28;20044;-86
2023/01/03 08:30:50;;;;;;;18.38;9.77;;;;;;;;;;5099192;28;20432;-86
2023/01/03 08:33:17;;;;;;;14.40;8.65;;;;;;;;;;5082038;28;20105;-87
2023/01/03 08:35:47;;;;;;;12.88;8.73;;;;;;;;;;5077045;28;20027;-87
2023/01/03 08:38:17;;;;;;;12.52;7.82;;;;;;;;;;5078250;28;20510;-89
2023/01/03 08:40:44;;;;;;;;;;;;;;;;;;5085387;28;20119;-88
2023/01/03 08:43:12;;;;;;;13.15;7.65;;;;;;;;;;5081575;28;19919;-88
2023/01/03 08:45:38;;;;;;;11.88;8.02;;;;;;;;;;5087740;28;20039;-89
2023/01/03 08:48:05;;;;;;;7.85;6.30;;;;;;;;;;5081196;28;20032;-88
2023/01/03 08:50:30;;;;;;;10.48;7.75;;;;;;;;;;5097778;28;20028;-88
2023/01/03 08:52:57;;;;;;;11.77;8.70;;;;;;;;;;5083629;28;20484;-88
2023/01/03 08:55:22;;;;;;;10.68;7.35;;;;;;;;;;5098975;28;20031;-86
2023/01/03 08:57:47;;;;;;;9.50;6.63;;;;;;;;;;5082142;28;20028;-89
2023/01/03 09:00:13;;;;;;;14.15;8.02;;;;;;;;;;5106892;28;20039;-88
2023/01/03 09:02:39;;;;;;;10.23;8.18;;;;;;;;;;5106036;28;20043;-88
2023/01/03 09:05:05;;;;;;;11.60;8.63;;;;;;;;;;5103582;28;20024;-89
2023/01/03 09:07:31;;;;;;;14.82;9.48;;;;;;;;;;5085749;28;20024;-88
2023/01/03 09:09:56;;;;;;;15.05;9.05;;;;;;;;;;5109725;28;20043;-89
2023/01/03 09:12:22;;;;;;;7.82;6.40;;;;;;;;;;5106325;28;20066;-88
2023/01/03 09:14:47;;;;;;;14.10;7.93;;;;;;;;;;5084867;28;20039;-88
2023/01/03 09:17:12;;;;;;;9.52;6.53;;;;;;;;;;5085896;28;20115;-87
2023/01/03 09:19:38;;;;;;;12.15;7.93;;;;;;;;;;5105952;28;20035;-88
2023/01/03 09:22:03;;;;;;;11.02;7.20;;;;;;;;;;5109085;28;20032;-89
2023/01/03 09:24:29;;;;;;;12.15;7.15;;;;;;;;;;5105334;28;20024;-88
2023/01/03 09:26:54;;;;;;;11.23;7.70;;;;;;;;;;5124696;27;20024;-88
2023/01/03 09:29:20;;;;;;;13.02;8.00;;;;;;;;;;5093180;28;20149;-89
2023/01/03 09:31:45;;;;;;;11.40;8.45;;;;;;;;;;5084093;28;20032;-88
2023/01/03 09:34:10;;;;;;;9.93;7.63;;;;;;;;;;5086867;28;20039;-89
2023/01/03 09:36:37;;;;;;;10.82;7.00;;;;;;;;;;5091973;28;20573;-87
2023/01/03 09:39:04;;;;;;;12.13;7.38;;;;;;;;;;5108478;28;20023;-89
2023/01/03 09:41:29;;;;;;;15.77;7.80;;;;;;;;;;5091654;28;20048;-89
2023/01/03 09:43:59;;;;;;;14.65;10.15;;;;;;;;;;5087076;28;20443;-89
2023/01/03 09:46:27;;;;;;;11.32;7.93;;;;;;;;;;5079002;28;20020;-88
2023/01/03 09:49:07;;;;;;;10.13;7.70;;;;;;;;;;5085018;28;20032;-89
2023/01/03 10:04:11;;;;;;;11.13;6.88;;;;;;;;;;5107777;28;20059;-87
2023/01/03 10:07:17;;;;;;;11.15;7.95;;;;;;;;;;5052104;28;20035;-87
2023/01/03 10:10:14;;;;;;;13.77;8.88;;;;;;;;;;5085746;28;20115;-88
2023/01/03 10:12:52;;;;;;;12.15;8.02;;;;;;;;;;5081189;28;20035;-87
2023/01/03 10:15:18;;;;;;;13.55;8.98;;;;;;;;;;5100200;28;20028;-89
2023/01/03 10:18:15;;;;;;;14.88;9.95;;;;;;;;;;5084273;28;20110;-89
2023/01/03 10:21:10;;;;;;;12.93;9.18;;;;;;;;;;5089708;28;20554;-85
2023/01/03 10:23:36;;;;;;;12.05;8.85;;;;;;;;;;5098230;28;20162;-86
2023/01/03 10:26:10;;;;;;;13.60;8.52;;;;;;;;;;5100465;28;20495;-85
2023/01/03 10:28:39;;;;;;;10.82;6.13;;;;;;;;;;5105311;28;20051;-85
2023/01/03 10:31:10;;;;;;;;;;;;;;;;;;5105054;28;20028;-87
2023/01/03 10:33:40;;;;;;;12.93;8.20;;;;;;;;;;5086592;28;19918;-86
2023/01/03 10:36:09;;;;;;;;;;;;;;;;;;5083464;28;20076;-87
2023/01/03 10:38:36;;;;;;;13.63;10.00;;;;;;;;;;5084656;28;19912;-86
2023/01/03 10:41:03;;;;;;;12.90;7.85;;;;;;;;;;5085145;28;20026;-89
2023/01/03 10:43:30;;;;;;;15.63;9.65;;;;;;;;;;5099895;28;20070;-86
2023/01/03 10:46:03;;;;;;;12.38;8.43;;;;;;;;;;5079043;28;20357;-85
2023/01/03 10:48:44;;;;;;;15.13;10.32;;;;;;;;;;5080810;28;20069;-84
2023/01/03 10:51:33;;;;;;;14.80;9.23;;;;;;;;;;5078608;28;20478;-84
2023/01/03 10:54:08;;;;;;;15.52;9.25;;;;;;;;;;5084820;28;20023;-85
2023/01/03 10:56:34;;;;;;;12.43;9.00;;;;;;;;;;5097235;28;20031;-84
2023/01/03 10:59:30;;;;;;;17.35;9.68;;;;;;;;;;5098951;28;20072;-86
2023/01/03 11:02:11;;;;;;;18.08;10.32;;;;;;;;;;5072319;28;20383;-84
2023/01/03 11:04:37;;;;;;;16.30;10.23;;;;;;;;;;5106127;28;20059;-84
2023/01/03 11:07:10;;;;;;;16.52;9.43;;;;;;;;;;5081858;28;20506;-85
2023/01/03 11:09:51;;;;;;;16.65;9.32;;;;;;;;;;5079283;28;20051;-85
2023/01/03 11:12:27;;;;;;;15.55;9.02;;;;;;;;;;5097056;28;20032;-85
2023/01/03 11:14:55;;;;;;;12.68;9.50;;;;;;;;;;5101630;28;20063;-86
2023/01/03 11:17:21;;;;;;;14.27;9.27;;;;;;;;;;5078329;28;20114;-87
2023/01/03 11:19:49;;;;;;;22.52;11.30;;;;;;;;;;5101692;28;20026;-85
2023/01/03 11:22:17;;;;;;;17.35;10.45;;;;;;;;;;5107377;28;20034;-85
2023/01/03 11:24:46;;;;;;;17.83;10.40;;;;;;;;;;5103183;28;20030;-86
2023/01/03 11:27:39;;;;;;;16.35;10.55;;;;;;;;;;5081563;28;20058;-85
2023/01/03 11:30:26;;;;;;;21.55;11.63;;;;;;;;;;5077876;28;20089;-83
2023/01/03 11:33:28;;;;;;;25.48;15.77;;;;;;;;;;5084781;28;20387;-86
2023/01/03 11:36:23;;;;;;;26.55;13.38;;;;;;;;;;5094162;28;20039;-86
2023/01/03 11:38:55;;;;;;;23.02;12.02;;;;;;;;;;5082182;28;20509;-86
2023/01/03 11:41:38;;;;;;;16.45;11.32;;;;;;;;;;5097624;28;20020;-85
2023/01/03 11:44:48;;;;;;;20.15;13.20;;;;;;;;;;5107396;28;20039;-86
2023/01/03 11:47:29;;;;;;;18.58;12.73;;;;;;;;;;5095756;28;20020;-86
2023/01/03 11:50:10;;;;;;;22.15;13.18;;;;;;;;;;5084234;28;20027;-86
2023/01/03 11:53:10;;;;;;;24.40;13.45;;;;;;;;;;5080043;28;20357;-85
2023/01/03 11:55:54;;;;;;;19.95;12.57;;;;;;;;;;5080872;28;20532;-85
2023/01/03 11:59:07;;;;;;;21.38;13.60;;;;;;;;;;5101267;28;20031;-87
2023/01/03 12:01:52;;;;;;;16.85;11.52;;;;;;;;;;5055014;28;20080;-85
2023/01/03 12:04:25;;;;;;;17.23;11.68;;;;;;;;;;5078874;28;20431;-84
2023/01/03 12:07:03;;;;;;;19.15;12.30;;;;;;;;;;5096969;28;20030;-83
2023/01/03 12:09:43;;;;;;;22.85;13.43;;;;;;;;;;5078992;28;20359;-83
2023/01/03 12:12:41;;;;;;;17.88;11.75;;;;;;;;;;5104081;28;20149;-85
2023/01/03 12:15:09;;;;;;;24.63;13.38;;;;;;;;;;5097285;28;20032;-85
2023/01/03 12:17:46;;;;;;;22.90;14.30;;;;;;;;;;5099049;28;20028;-85
2023/01/03 12:20:44;;;;;;;29.52;16.35;;;;;;;;;;5094913;28;20495;-84
2023/01/03 12:23:37;;;;;;;32.00;18.10;;;;;;;;;;5083432;28;20472;-84
2023/01/03 12:26:07;;;;;;;26.73;18.67;;;;;;;;;;5081604;28;20024;-83
2023/01/03 12:28:47;;;;;;;25.60;17.90;;;;;;;;;;5086824;28;20035;-84
2023/01/03 12:31:30;;;;;;;29.38;18.60;;;;;;;;;;5076867;28;20429;-86
2023/01/03 12:34:04;;;;;;;26.42;16.85;;;;;;;;;;5093082;28;20046;-85
2023/01/03 12:36:35;;;;;;;30.85;21.33;;;;;;;;;;5099540;28;20421;-84
2023/01/03 12:39:10;;;;;;;31.85;20.50;;;;;;;;;;5082961;28;20055;-85
2023/01/03 12:41:55;;;;;;;33.00;20.90;;;;;;;;;;5101821;28;20471;-84
2023/01/03 12:44:31;;;;;;;37.05;19.98;;;;;;;;;;5082588;28;20025;-84
2023/01/03 12:46:57;;;;;;;38.72;21.85;;;;;;;;;;5089122;28;20034;-85
2023/01/03 12:49:42;;;;;;;34.17;21.58;;;;;;;;;;5078376;28;20105;-85
2023/01/03 12:52:15;;;;;;;29.40;19.83;;;;;;;;;;5104020;28;20024;-85
2023/01/03 12:54:50;;;;;;;42.33;21.88;;;;;;;;;;5077954;28;20020;-85
2023/01/03 12:57:37;;;;;;;34.47;19.83;;;;;;;;;;5099325;28;20145;-83
2023/01/03 13:00:31;;;;;;;36.83;19.73;;;;;;;;;;5091809;28;20119;-85
2023/01/03 13:03:21;;;;;;;33.10;20.45;;;;;;;;;;5083672;28;20102;-85
2023/01/03 13:05:59;;;;;;;31.83;20.65;;;;;;;;;;5095833;28;20028;-85
2023/01/03 13:08:42;;;;;;;16.65;10.30;;;;;;;;;;5076906;28;20032;-84
2023/01/03 13:11:18;;;;;;;14.63;8.35;;;;;;;;;;5091448;28;20085;-86
2023/01/03 13:13:56;;;;;;;9.90;6.35;;;;;;;;;;5097148;28;20016;-85
2023/01/03 13:16:43;;;;;;;8.20;5.00;;;;;;;;;;5102250;28;20505;-84
2023/01/03 13:19:21;;;;;;;6.63;4.90;;;;;;;;;;5101691;28;20028;-85
2023/01/03 13:21:53;;;;;;;10.80;6.75;;;;;;;;;;5102917;28;20020;-85
2023/01/03 13:24:43;;;;;;;10.00;6.00;;;;;;;;;;5086510;28;20024;-85
2023/01/03 13:27:26;;;;;;;12.70;6.78;;;;;;;;;;5073203;28;20028;-84
2023/01/03 13:29:55;;;;;;;13.20;9.02;;;;;;;;;;5076982;28;20024;-85
2023/01/03 13:32:20;;;;;;;16.58;11.68;;;;;;;;;;5099326;28;20024;-85
2023/01/03 13:34:57;;;;;;;20.08;12.10;;;;;;;;;;5102054;28;20099;-85
2023/01/03 13:37:23;;;;;;;18.05;10.32;;;;;;;;;;5099070;28;20471;-84
2023/01/03 13:39:49;;;;;;;10.60;6.72;;;;;;;;;;5093212;28;20082;-85
2023/01/03 13:42:34;;;;;;;8.93;4.15;;;;;;;;;;5098825;28;20089;-84
2023/01/03 13:45:18;;;;;;;5.95;4.30;;;;;;;;;;5076330;28;20032;-85
2023/01/03 13:47:46;;;;;;;4.95;2.92;;;;;;;;;;5098071;28;20020;-85
2023/01/03 13:50:32;;;;;;;1.63;1.42;;;;;;;;;;5083995;28;20492;-85
2023/01/03 13:53:10;;;;;;;1.98;1.35;;;;;;;;;;5101903;28;20034;-84
2023/01/03 13:55:38;;;;;;;2.53;1.85;;;;;;;;;;5099134;28;20469;-84
2023/01/03 13:58:36;;;;;;;2.42;2.03;;;;;;;;;;5096846;28;20168;-85
2023/01/03 14:01:05;;;;;;;2.83;1.70;;;;;;;;;;5106147;28;20031;-86
2023/01/03 14:03:45;;;;;;;3.13;1.60;;;;;;;;;;5081335;28;20028;-86
2023/01/03 14:06:10;;;;;;;3.35;1.67;;;;;;;;;;5120596;27;20123;-85
2023/01/03 14:08:44;;;;;;;4.13;1.73;;;;;;;;;;5108171;28;20059;-85
2023/01/03 14:11:31;;;;;;;1.33;0.88;;;;;;;;;;5104139;28;20075;-85
2023/01/03 14:14:09;;;;;;;2.10;1.10;;;;;;;;;;5099520;28;20077;-85
2023/01/03 14:16:48;;;;;;;0.88;0.77;;;;;;;;;;5106955;28;20023;-86
2023/01/03 14:19:31;;;;;;;5.07;2.30;;;;;;;;;;5081478;28;20545;-84
2023/01/03 14:22:11;;;;;;;1.48;1.30;;;;;;;;;;5078485;28;20020;-84
2023/01/03 14:24:50;;;;;;;1.65;1.27;;;;;;;;;;5099538;28;20471;-85
2023/01/03 14:27:18;;;;;;;2.38;1.38;;;;;;;;;;5080614;28;20063;-85
2023/01/03 14:29:49;;;;;;;5.30;2.50;;;;;;;;;;5103859;28;20039;-84
2023/01/03 14:32:27;;;;;;;4.32;2.30;;;;;;;;;;5097703;28;20035;-85
2023/01/03 14:34:53;;;;;;;1.45;1.35;;;;;;;;;;5115076;27;20020;-85
2023/01/03 14:37:21;;;;;;;1.27;1.08;;;;;;;;;;5090215;28;20435;-85
2023/01/03 14:40:00;;;;;;;3.47;1.88;;;;;;;;;;5079828;28;20495;-84
2023/01/03 14:42:26;;;;;;;2.08;1.10;;;;;;;;;;5079942;28;20024;-85
2023/01/03 14:44:56;;;;;;;0.90;0.80;;;;;;;;;;5110294;27;20506;-84
2023/01/03 14:47:40;;;;;;;2.00;1.30;;;;;;;;;;5106361;28;20032;-85
2023/01/03 14:50:13;;;;;;;1.65;1.55;;;;;;;;;;5094321;28;20112;-85
2023/01/03 14:52:44;;;;;;;1.80;0.93;;;;;;;;;;5102966;28;20257;-86
2023/01/03 14:55:16;;;;;;;1.40;0.70;;;;;;;;;;5101906;28;20023;-85
2023/01/03 14:57:44;;;;;;;1.95;1.30;;;;;;;;;;5085649;28;20076;-85
2023/01/03 15:00:19;;;;;;;1.42;1.20;;;;;;;;;;5103439;28;20116;-85
2023/01/03 15:02:46;;;;;;;2.25;1.48;;;;;;;;;;5084058;28;20421;-86
2023/01/03 15:05:30;;;;;;;1.38;1.10;;;;;;;;;;5105561;28;20031;-84
2023/01/03 15:08:11;;;;;;;1.00;0.75;;;;;;;;;;5101695;28;20024;-84
2023/01/03 15:10:58;;;;;;;3.63;2.47;;;;;;;;;;5095983;28;20058;-85
2023/01/03 15:13:54;;;;;;;3.08;1.85;;;;;;;;;;5098191;28;20031;-84
2023/01/03 15:16:29;;;;;;;3.10;2.40;;;;;;;;;;5095544;28;20062;-83
2023/01/03 15:19:02;;;;;;;1.20;1.10;;;;;;;;;;5105921;28;20028;-85
2023/01/03 15:21:29;;;;;;;2.72;1.23;;;;;;;;;;5095571;28;20107;-83
2023/01/03 15:23:55;;;;;;;6.47;3.35;;;;;;;;;;5101778;28;20027;-85
2023/01/03 15:26:25;;;;;;;4.05;2.72;;;;;;;;;;5086066;28;20076;-85
2023/01/03 15:29:03;;;;;;;5.72;3.85;;;;;;;;;;5098078;27;20903;-84
2023/01/03 15:31:37;;;;;;;4.32;2.50;;;;;;;;;;5064848;28;20036;-85
2023/01/03 15:34:10;;;;;;;5.95;3.47;;;;;;;;;;5056025;28;20036;-85
2023/01/03 15:36:38;;;;;;;3.83;2.75;;;;;;;;;;5067009;28;20024;-85
2023/01/03 15:39:17;;;;;;;1.67;0.95;;;;;;;;;;5072586;28;20038;-85
2023/01/03 15:44:27;;;;;;;3.95;2.67;;;;;;;;;;5068664;28;20774;-85
2023/01/03 15:47:00;;;;;;;9.10;2.55;;;;;;;;;;5068667;28;20055;-86
2023/01/03 15:49:27;;;;;;;4.65;2.22;;;;;;;;;;5069053;28;20044;-84
2023/01/03 15:51:52;;;;;;;5.15;3.25;;;;;;;;;;5067829;28;20020;-83
2023/01/03 15:54:19;;;;;;;2.20;1.75;;;;;;;;;;5067381;28;20520;-84
2023/01/03 15:57:02;;;;;;;2.33;1.38;;;;;;;;;;5067623;28;20475;-84
2023/01/03 15:59:31;;;;;;;3.10;2.22;;;;;;;;;;5063008;28;20028;-84
2023/01/03 16:01:57;;;;;;;3.33;2.00;;;;;;;;;;5061365;28;20024;-83
2023/01/03 16:04:23;;;;;;;3.55;2.17;;;;;;;;;;5065514;28;20028;-83
2023/01/03 16:06:48;;;;;;;3.88;1.65;;;;;;;;;;5064441;28;20624;-87
2023/01/03 16:09:13;;;;;;;1.35;1.00;;;;;;;;;;5060179;28;20017;-85
2023/01/03 16:11:39;;;;;;;1.98;1.10;;;;;;;;;;5061831;28;20029;-84
2023/01/03 16:14:21;;;;;;;3.28;1.70;;;;;;;;;;5067561;28;20036;-83